sensor_id;sensor_type;location;lat;lon;timestamp;temperature;humidity
1079;DHT22;528;47.872;11.478;2022-09-20T00:02:10;11.40;99.90
1079;DHT22;528;47.872;11.478;2022-09-20T00:04:37;11.30;99.90
1079;DHT22;528;47.872;11.478;2022-09-20T00:07:08;11.30;99.90
1079;DHT22;528;47.872;11.478;2022-09-20T00:12:55;11.40;99.90
1079;DHT22;528;47.872;11.478;2022-09-20T00:15:29;11.50;99.90
1079;DHT22;528;47.872;11.478;2022-09-20T00:18:17;11.50;99.90
1079;DHT22;528;47.872;11.478;2022-09-20T00:21:02;11.40;99.90
1079;DHT22;528;47.872;11.478;2022-09-20T00:23:48;11.50;99.90
1079;DHT22;528;47.872;11.478;2022-09-20T00:26:30;11.40;99.90
1079;DHT22;528;47.872;11.478;2022-09-20T00:29:10;11.40;99.90
1079;DHT22;528;47.872;11.478;2022-09-20T00:31:44;11.40;99.90
1079;DHT22;528;47.872;11.478;2022-09-20T00:34:12;11.30;99.90
1079;DHT22;528;47.872;11.478;2022-09-20T00:36:56;11.30;99.90
1079;DHT22;528;47.872;11.478;2022-09-20T00:39:25;11.30;99.90
1079;DHT22;528;47.872;11.478;2022-09-20T00:42:12;11.30;99.90
1079;DHT22;528;47.872;11.478;2022-09-20T00:44:49;11.30;99.90
1079;DHT22;528;47.872;11.478;2022-09-20T00:47:39;11.30;99.90
1079;DHT22;528;47.872;11.478;2022-09-20T00:50:26;11.20;99.90
1079;DHT22;528;47.872;11.478;2022-09-20T00:53:02;11.20;99.90
1079;DHT22;528;47.872;11.478;2022-09-20T00:58:24;11.20;99.90
1079;DHT22;528;47.872;11.478;2022-09-20T00:59:38;11.20;99.90
1079;DHT22;528;47.872;11.478;2022-09-20T01:05:47;11.10;99.90
1079;DHT22;528;47.872;11.478;2022-09-20T01:12:17;11.00;99.90
1079;DHT22;528;47.872;11.478;2022-09-20T01:18:16;11.00;99.90
1079;DHT22;528;47.872;11.478;2022-09-20T01:20:52;11.10;99.90
1079;DHT22;528;47.872;11.478;2022-09-20T01:23:37;11.00;99.90
1079;DHT22;528;47.872;11.478;2022-09-20T01:26:39;11.00;99.90
1079;DHT22;528;47.872;11.478;2022-09-20T01:29:33;11.10;99.90
1079;DHT22;528;47.872;11.478;2022-09-20T01:32:12;11.10;99.90
1079;DHT22;528;47.872;11.478;2022-09-20T01:34:57;11.10;99.90
1079;DHT22;528;47.872;11.478;2022-09-20T01:37:38;11.00;99.90
1079;DHT22;528;47.872;11.478;2022-09-20T01:40:28;11.00;99.90
1079;DHT22;528;47.872;11.478;2022-09-20T01:43:11;10.90;99.90
1079;DHT22;528;47.872;11.478;2022-09-20T01:45:51;10.90;99.90
1079;DHT22;528;47.872;11.478;2022-09-20T01:48:31;11.00;99.90
1079;DHT22;528;47.872;11.478;2022-09-20T01:51:43;11.00;99.90
1079;DHT22;528;47.872;11.478;2022-09-20T01:54:52;11.10;99.90
1079;DHT22;528;47.872;11.478;2022-09-20T02:25:22;11.10;99.90
1079;DHT22;528;47.872;11.478;2022-09-20T02:32:11;11.10;99.90
1079;DHT22;528;47.872;11.478;2022-09-20T02:35:12;11.00;99.90
1079;DHT22;528;47.872;11.478;2022-09-20T02:38:12;10.90;99.90
1079;DHT22;528;47.872;11.478;2022-09-20T02:44:19;10.80;99.90
1079;DHT22;528;47.872;11.478;2022-09-20T02:46:59;10.70;99.90
1079;DHT22;528;47.872;11.478;2022-09-20T02:49:57;10.70;99.90
1079;DHT22;528;47.872;11.478;2022-09-20T02:52:56;10.60;99.90
1079;DHT22;528;47.872;11.478;2022-09-20T02:55:45;10.30;99.90
1079;DHT22;528;47.872;11.478;2022-09-20T02:58:34;10.30;99.90
1079;DHT22;528;47.872;11.478;2022-09-20T03:01:18;10.20;99.90
1079;DHT22;528;47.872;11.478;2022-09-20T03:04:14;10.20;99.90
1079;DHT22;528;47.872;11.478;2022-09-20T03:06:54;10.20;99.90
1079;DHT22;528;47.872;11.478;2022-09-20T03:09:40;10.20;99.90
1079;DHT22;528;47.872;11.478;2022-09-20T03:12:48;10.20;99.90
1079;DHT22;528;47.872;11.478;2022-09-20T03:15:47;10.00;99.90
1079;DHT22;528;47.872;11.478;2022-09-20T03:18:42;9.80;99.90
1079;DHT22;528;47.872;11.478;2022-09-20T03:21:43;9.90;99.90
1079;DHT22;528;47.872;11.478;2022-09-20T03:28:40;9.70;99.90
1079;DHT22;528;47.872;11.478;2022-09-20T03:34:44;9.70;99.90
1079;DHT22;528;47.872;11.478;2022-09-20T03:37:35;9.70;99.90
1079;DHT22;528;47.872;11.478;2022-09-20T03:43:25;9.60;99.90
1079;DHT22;528;47.872;11.478;2022-09-20T03:46:21;9.70;99.90
1079;DHT22;528;47.872;11.478;2022-09-20T03:52:23;9.60;99.90
1079;DHT22;528;47.872;11.478;2022-09-20T03:55:36;9.50;99.90
1079;DHT22;528;47.872;11.478;2022-09-20T03:58:41;9.40;99.90
1079;DHT22;528;47.872;11.478;2022-09-20T04:01:36;9.40;99.90
1079;DHT22;528;47.872;11.478;2022-09-20T04:04:12;9.40;99.90
1079;DHT22;528;47.872;11.478;2022-09-20T04:07:00;9.40;99.90
1079;DHT22;528;47.872;11.478;2022-09-20T04:10:00;9.40;99.90
1079;DHT22;528;47.872;11.478;2022-09-20T04:12:37;9.30;99.90
1079;DHT22;528;47.872;11.478;2022-09-20T04:15:40;9.30;99.90
1079;DHT22;528;47.872;11.478;2022-09-20T04:21:56;9.20;99.90
1079;DHT22;528;47.872;11.478;2022-09-20T04:24:34;9.20;99.90
1079;DHT22;528;47.872;11.478;2022-09-20T04:27:21;9.20;99.90
1079;DHT22;528;47.872;11.478;2022-09-20T04:30:04;9.20;99.90
1079;DHT22;528;47.872;11.478;2022-09-20T04:32:57;9.20;99.90
1079;DHT22;528;47.872;11.478;2022-09-20T04:35:49;9.20;99.90
1079;DHT22;528;47.872;11.478;2022-09-20T04:38:44;9.20;99.90
1079;DHT22;528;47.872;11.478;2022-09-20T04:41:40;9.20;99.90
1079;DHT22;528;47.872;11.478;2022-09-20T04:51:23;9.00;99.90
1079;DHT22;528;47.872;11.478;2022-09-20T04:54:34;9.00;99.90
1079;DHT22;528;47.872;11.478;2022-09-20T05:00:47;8.80;99.90
1079;DHT22;528;47.872;11.478;2022-09-20T05:07:15;8.80;99.90
1079;DHT22;528;47.872;11.478;2022-09-20T05:10:30;8.80;99.90
1079;DHT22;528;47.872;11.478;2022-09-20T05:13:54;8.70;99.90
1079;DHT22;528;47.872;11.478;2022-09-20T05:16:38;8.70;99.90
1079;DHT22;528;47.872;11.478;2022-09-20T05:19:23;8.70;99.90
1079;DHT22;528;47.872;11.478;2022-09-20T05:22:14;8.70;99.90
1079;DHT22;528;47.872;11.478;2022-09-20T05:25:17;8.80;99.90
1079;DHT22;528;47.872;11.478;2022-09-20T05:27:57;8.70;99.90
1079;DHT22;528;47.872;11.478;2022-09-20T05:30:34;8.70;99.90
1079;DHT22;528;47.872;11.478;2022-09-20T05:33:14;8.70;99.90
1079;DHT22;528;47.872;11.478;2022-09-20T05:35:52;8.70;99.90
1079;DHT22;528;47.872;11.478;2022-09-20T05:38:38;8.70;99.90
1079;DHT22;528;47.872;11.478;2022-09-20T05:41:26;8.70;99.90
1079;DHT22;528;47.872;11.478;2022-09-20T05:44:04;8.70;99.90
1079;DHT22;528;47.872;11.478;2022-09-20T05:46:47;8.60;99.90
1079;DHT22;528;47.872;11.478;2022-09-20T05:49:43;8.70;99.90
1079;DHT22;528;47.872;11.478;2022-09-20T05:52:33;8.80;99.90
1079;DHT22;528;47.872;11.478;2022-09-20T05:58:43;8.80;99.90
1079;DHT22;528;47.872;11.478;2022-09-20T06:01:21;8.90;99.90
1079;DHT22;528;47.872;11.478;2022-09-20T06:04:00;9.00;99.90
1079;DHT22;528;47.872;11.478;2022-09-20T06:06:56;9.10;99.90
1079;DHT22;528;47.872;11.478;2022-09-20T06:09:57;9.20;99.90
1079;DHT22;528;47.872;11.478;2022-09-20T06:13:03;9.30;99.90
1079;DHT22;528;47.872;11.478;2022-09-20T06:16:26;9.50;99.90
1079;DHT22;528;47.872;11.478;2022-09-20T06:19:17;9.50;99.90
1079;DHT22;528;47.872;11.478;2022-09-20T06:22:06;9.50;99.90
1079;DHT22;528;47.872;11.478;2022-09-20T06:24:45;9.60;99.90
1079;DHT22;528;47.872;11.478;2022-09-20T06:27:17;9.70;99.90
1079;DHT22;528;47.872;11.478;2022-09-20T06:29:57;9.70;99.90
1079;DHT22;528;47.872;11.478;2022-09-20T06:32:32;9.80;99.90
1079;DHT22;528;47.872;11.478;2022-09-20T06:35:10;9.80;99.90
1079;DHT22;528;47.872;11.478;2022-09-20T06:37:49;9.90;99.90
1079;DHT22;528;47.872;11.478;2022-09-20T06:40:44;9.90;99.90
1079;DHT22;528;47.872;11.478;2022-09-20T06:44:09;9.90;99.90
1079;DHT22;528;47.872;11.478;2022-09-20T06:46:51;10.10;99.90
1079;DHT22;528;47.872;11.478;2022-09-20T06:49:21;10.10;99.90
1079;DHT22;528;47.872;11.478;2022-09-20T06:51:57;10.10;99.90
1079;DHT22;528;47.872;11.478;2022-09-20T06:54:54;10.20;99.90
1079;DHT22;528;47.872;11.478;2022-09-20T06:57:37;10.30;99.90
1079;DHT22;528;47.872;11.478;2022-09-20T07:00:08;10.40;99.90
1079;DHT22;528;47.872;11.478;2022-09-20T07:02:45;10.50;99.90
1079;DHT22;528;47.872;11.478;2022-09-20T07:05:21;10.60;99.90
1079;DHT22;528;47.872;11.478;2022-09-20T07:07:57;10.70;99.90
1079;DHT22;528;47.872;11.478;2022-09-20T07:10:34;10.80;99.90
1079;DHT22;528;47.872;11.478;2022-09-20T07:13:06;10.90;99.90
1079;DHT22;528;47.872;11.478;2022-09-20T07:16:07;11.00;99.90
1079;DHT22;528;47.872;11.478;2022-09-20T07:18:55;11.10;99.90
1079;DHT22;528;47.872;11.478;2022-09-20T07:21:44;11.20;99.90
1079;DHT22;528;47.872;11.478;2022-09-20T07:24:19;11.30;99.90
1079;DHT22;528;47.872;11.478;2022-09-20T07:27:05;11.50;99.90
1079;DHT22;528;47.872;11.478;2022-09-20T07:29:48;11.60;99.90
1079;DHT22;528;47.872;11.478;2022-09-20T07:32:29;11.70;99.90
1079;DHT22;528;47.872;11.478;2022-09-20T07:35:35;11.80;99.90
1079;DHT22;528;47.872;11.478;2022-09-20T07:41:45;12.00;99.90
1079;DHT22;528;47.872;11.478;2022-09-20T07:47:58;12.00;99.90
1079;DHT22;528;47.872;11.478;2022-09-20T08:33:27;12.40;99.90
1079;DHT22;528;47.872;11.478;2022-09-20T08:36:40;12.40;99.90
1079;DHT22;528;47.872;11.478;2022-09-20T12:54:20;14.50;99.90
1079;DHT22;528;47.872;11.478;2022-09-20T13:06:53;14.50;99.90
1079;DHT22;528;47.872;11.478;2022-09-20T13:13:33;14.50;99.90
1079;DHT22;528;47.872;11.478;2022-09-20T13:16:21;14.50;99.90
1079;DHT22;528;47.872;11.478;2022-09-20T13:22:10;14.60;99.90
1079;DHT22;528;47.872;11.478;2022-09-20T13:24:48;14.70;99.90
1079;DHT22;528;47.872;11.478;2022-09-20T13:27:32;14.70;99.90
1079;DHT22;528;47.872;11.478;2022-09-20T13:30:26;14.70;99.90
1079;DHT22;528;47.872;11.478;2022-09-20T13:33:29;14.70;99.90
1079;DHT22;528;47.872;11.478;2022-09-20T13:36:34;14.70;99.90
1079;DHT22;528;47.872;11.478;2022-09-20T13:40:01;14.70;99.90
1079;DHT22;528;47.872;11.478;2022-09-20T13:46:31;14.50;99.90
1079;DHT22;528;47.872;11.478;2022-09-20T13:49:29;14.40;99.90
1079;DHT22;528;47.872;11.478;2022-09-20T14:31:13;14.60;99.90
1079;DHT22;528;47.872;11.478;2022-09-20T14:33:54;14.60;99.40
1079;DHT22;528;47.872;11.478;2022-09-20T14:36:34;14.60;99.80
1079;DHT22;528;47.872;11.478;2022-09-20T14:39:50;14.60;99.90
1079;DHT22;528;47.872;11.478;2022-09-20T14:42:32;14.50;99.40
1079;DHT22;528;47.872;11.478;2022-09-20T14:45:37;14.60;99.90
1079;DHT22;528;47.872;11.478;2022-09-20T14:48:32;14.60;99.90
1079;DHT22;528;47.872;11.478;2022-09-20T14:51:25;14.50;99.90
1079;DHT22;528;47.872;11.478;2022-09-20T14:54:20;14.60;99.90
1079;DHT22;528;47.872;11.478;2022-09-20T14:57:54;14.60;99.90
1079;DHT22;528;47.872;11.478;2022-09-20T15:00:11;14.60;99.90
1079;DHT22;528;47.872;11.478;2022-09-20T15:02:43;14.60;99.90
1079;DHT22;528;47.872;11.478;2022-09-20T15:05:25;14.60;99.90
1079;DHT22;528;47.872;11.478;2022-09-20T15:08:01;14.60;99.60
1079;DHT22;528;47.872;11.478;2022-09-20T15:10:43;14.60;99.30
1079;DHT22;528;47.872;11.478;2022-09-20T15:13:30;14.60;99.70
1079;DHT22;528;47.872;11.478;2022-09-20T15:16:08;14.60;99.60
1079;DHT22;528;47.872;11.478;2022-09-20T15:18:45;14.50;99.80
1079;DHT22;528;47.872;11.478;2022-09-20T15:21:52;14.50;98.90
1079;DHT22;528;47.872;11.478;2022-09-20T15:24:25;14.50;99.20
1079;DHT22;528;47.872;11.478;2022-09-20T15:26:55;14.50;99.30
1079;DHT22;528;47.872;11.478;2022-09-20T15:29:41;14.40;99.00
1079;DHT22;528;47.872;11.478;2022-09-20T15:35:00;14.40;98.80
1079;DHT22;528;47.872;11.478;2022-09-20T15:37:30;14.30;95.70
1079;DHT22;528;47.872;11.478;2022-09-20T15:40:02;14.20;96.90
1079;DHT22;528;47.872;11.478;2022-09-20T15:42:39;14.10;95.50
1079;DHT22;528;47.872;11.478;2022-09-20T15:45:22;14.10;95.80
1079;DHT22;528;47.872;11.478;2022-09-20T15:47:55;14.00;95.40
1079;DHT22;528;47.872;11.478;2022-09-20T15:50:25;14.00;96.10
1079;DHT22;528;47.872;11.478;2022-09-20T15:52:53;14.00;96.80
1079;DHT22;528;47.872;11.478;2022-09-20T15:55:32;14.00;96.90
1079;DHT22;528;47.872;11.478;2022-09-20T15:58:19;14.00;97.80
1079;DHT22;528;47.872;11.478;2022-09-20T18:24:14;12.60;99.90
1079;DHT22;528;47.872;11.478;2022-09-20T18:27:27;12.40;99.90
1079;DHT22;528;47.872;11.478;2022-09-20T18:30:09;12.30;99.90
1079;DHT22;528;47.872;11.478;2022-09-20T18:32:42;12.30;99.90
1079;DHT22;528;47.872;11.478;2022-09-20T18:35:15;12.20;99.90
1079;DHT22;528;47.872;11.478;2022-09-20T18:37:47;12.20;99.90
1079;DHT22;528;47.872;11.478;2022-09-20T18:40:23;12.20;99.90
1079;DHT22;528;47.872;11.478;2022-09-20T18:42:56;12.10;99.90
1079;DHT22;528;47.872;11.478;2022-09-20T21:24:21;10.70;99.90
1079;DHT22;528;47.872;11.478;2022-09-20T21:32:14;10.80;99.90
1079;DHT22;528;47.872;11.478;2022-09-20T21:35:27;10.80;99.90
1079;DHT22;528;47.872;11.478;2022-09-20T21:38:10;10.90;99.90
1079;DHT22;528;47.872;11.478;2022-09-20T21:41:17;10.80;99.90
1079;DHT22;528;47.872;11.478;2022-09-20T21:44:04;10.80;99.90
1079;DHT22;528;47.872;11.478;2022-09-20T21:46:51;10.80;99.90
1079;DHT22;528;47.872;11.478;2022-09-20T21:49:40;10.70;99.90
1079;DHT22;528;47.872;11.478;2022-09-20T21:52:17;10.70;99.90
1079;DHT22;528;47.872;11.478;2022-09-20T21:54:56;10.50;99.90
1079;DHT22;528;47.872;11.478;2022-09-20T21:57:42;10.50;99.90
1079;DHT22;528;47.872;11.478;2022-09-20T22:00:22;10.50;99.90
1079;DHT22;528;47.872;11.478;2022-09-20T22:03:00;10.50;99.90
1079;DHT22;528;47.872;11.478;2022-09-20T22:05:37;10.60;99.90
1079;DHT22;528;47.872;11.478;2022-09-20T22:08:17;10.60;99.90
1079;DHT22;528;47.872;11.478;2022-09-20T22:11:06;10.50;99.90
1079;DHT22;528;47.872;11.478;2022-09-20T22:13:50;10.30;99.90
1079;DHT22;528;47.872;11.478;2022-09-20T22:16:28;10.30;99.90
1079;DHT22;528;47.872;11.478;2022-09-20T22:21:32;10.30;99.90
1079;DHT22;528;47.872;11.478;2022-09-20T22:22:14;10.40;99.90
1079;DHT22;528;47.872;11.478;2022-09-20T22:25:36;10.40;99.90
1079;DHT22;528;47.872;11.478;2022-09-20T22:28:04;10.30;99.90
1079;DHT22;528;47.872;11.478;2022-09-20T22:30:52;10.10;99.90
1079;DHT22;528;47.872;11.478;2022-09-20T22:33:50;10.10;99.90
1079;DHT22;528;47.872;11.478;2022-09-20T22:36:36;10.10;99.90
1079;DHT22;528;47.872;11.478;2022-09-20T22:39:24;10.00;99.90
1079;DHT22;528;47.872;11.478;2022-09-20T22:42:02;10.00;99.90
1079;DHT22;528;47.872;11.478;2022-09-20T22:44:35;10.00;99.90
1079;DHT22;528;47.872;11.478;2022-09-20T22:47:31;10.00;99.90
1079;DHT22;528;47.872;11.478;2022-09-20T22:50:02;9.90;99.90
1079;DHT22;528;47.872;11.478;2022-09-20T22:52:43;9.90;99.90
1079;DHT22;528;47.872;11.478;2022-09-20T22:55:22;9.80;99.90
1079;DHT22;528;47.872;11.478;2022-09-20T22:58:02;9.70;99.90
1079;DHT22;528;47.872;11.478;2022-09-20T23:00:40;9.60;99.90
1079;DHT22;528;47.872;11.478;2022-09-20T23:03:18;9.50;99.90
1079;DHT22;528;47.872;11.478;2022-09-20T23:05:54;9.70;99.90
1079;DHT22;528;47.872;11.478;2022-09-20T23:08:29;9.70;99.90
1079;DHT22;528;47.872;11.478;2022-09-20T23:11:00;9.60;99.90
1079;DHT22;528;47.872;11.478;2022-09-20T23:13:42;9.50;99.90
1079;DHT22;528;47.872;11.478;2022-09-20T23:16:23;9.40;99.90
1079;DHT22;528;47.872;11.478;2022-09-20T23:18:56;9.40;99.90
1079;DHT22;528;47.872;11.478;2022-09-20T23:21:28;9.40;99.90
1079;DHT22;528;47.872;11.478;2022-09-20T23:23:57;9.50;99.90
1079;DHT22;528;47.872;11.478;2022-09-20T23:26:26;9.50;99.90
1079;DHT22;528;47.872;11.478;2022-09-20T23:28:55;9.50;99.90
1079;DHT22;528;47.872;11.478;2022-09-20T23:31:34;9.50;99.90
1079;DHT22;528;47.872;11.478;2022-09-20T23:34:08;9.40;99.90
1079;DHT22;528;47.872;11.478;2022-09-20T23:36:40;9.50;99.90
1079;DHT22;528;47.872;11.478;2022-09-20T23:39:15;9.30;99.90
1079;DHT22;528;47.872;11.478;2022-09-20T23:41:44;9.20;99.90
1079;DHT22;528;47.872;11.478;2022-09-20T23:44:19;9.20;99.90
1079;DHT22;528;47.872;11.478;2022-09-20T23:47:04;9.10;99.90
1079;DHT22;528;47.872;11.478;2022-09-20T23:49:38;9.10;99.90
1079;DHT22;528;47.872;11.478;2022-09-20T23:52:08;9.10;99.90
1079;DHT22;528;47.872;11.478;2022-09-20T23:54:41;9.20;99.90
1079;DHT22;528;47.872;11.478;2022-09-20T23:57:13;9.00;99.90
1079;DHT22;528;47.872;11.478;2022-09-20T23:59:43;8.90;99.90
